KFAT

Fresno Yosemite International Airport

Fresno, California, USA
KFAT 162321Z 1700/1724 15010KT 5SM -RA OVC050 FM170200 14015G22KT 4SM RA BR BKN025 OVC050 TEMPO 1714/1718 4SM -TSRA BKN050CB FM172200 29010KT 6SM -SHRA BR OVC050
Issued Valid From Valid To
Jan-16 @ 23:21 UTC
(2 hours ago)
Jan-17 @ 00:00 UTC
(2 hours ago)
Jan-18 @ 00:00 UTC
(in 22 hours)
Jan-17 @ 00:00 to Jan-17 @ 02:00
KFAT 162321Z 1700/1724 15010KT 5SM -RA OVC050
Wind Visibility Clouds Conditions
150° at 10 knots 5 miles
  • Overcast at 5,000' AGL
  • Light Rain
From Jan-17 @ 02:00 to Jan-17 @ 22:00
FM170200 14015G22KT 4SM RA BR BKN025 OVC050
Wind Visibility Clouds Conditions
140° at 15 knots
 Gusting to 22 knots
4 miles
  • Broken at 2,500' AGL
  • Overcast at 5,000' AGL
  • Rain
  • Mist
Temporary Jan-17 @ 14:00 to Jan-17 @ 18:00
TEMPO 1714/1718 4SM -TSRA BKN050CB
Visibility Clouds Conditions
4 miles
  • Broken at 5,000' AGL
  • Light Thunderstorm
  • Light Rain
From Jan-17 @ 22:00 to Jan-18 @ 00:00
FM172200 29010KT 6SM -SHRA BR OVC050
Wind Visibility Clouds Conditions
290° at 10 knots 6 miles
  • Overcast at 5,000' AGL
  • Light Rain
  • Mist
KFAT 162321Z 1700/1724 15010KT 5SM -RA OVC050 FM170200 14015G22KT 4SM RA BR BKN025 OVC050 TEMPO 1714/1718 4SM -TSRA BKN050CB FM172200 29010KT 6SM -SHRA BR OVC050
Issued Jan-16 @ 23:21 UTC
(2 hours ago)
Valid From Jan-17 @ 00:00 UTC
(2 hours ago)
Valid To Jan-18 @ 00:00 UTC
(in 22 hours)
Jan-17 @ 00:00 - Jan-17 @ 02:00
Wind Visibility
150° at 10 knots 5 miles
Clouds
  • Overcast at 5,000' AGL
Conditions
  • Light Rain
From Jan-17 @ 02:00 - Jan-17 @ 22:00
Wind Visibility
140° at 15 knots
 Gusting to 22 knots
4 miles
Clouds
  • Broken at 2,500' AGL
  • Overcast at 5,000' AGL
Conditions
  • Rain
  • Mist
Temporary Jan-17 @ 14:00 - Jan-17 @ 18:00
Clouds
  • Broken at 5,000' AGL
Conditions
  • Light Thunderstorm
  • Light Rain
From Jan-17 @ 22:00 - Jan-18 @ 00:00
Wind Visibility
290° at 10 knots 6 miles
Clouds
  • Overcast at 5,000' AGL
Conditions
  • Light Rain
  • Mist